Time;durP1;ratioP1;P1;durP2;ratioP2;P2;SDS_P1;SDS_P2;PMS_P1;PMS_P2;Temp;Humidity;BMP_temperature;BMP_pressure;BME280_temperature;BME280_humidity;BME280_pressure;Samples;Min_cycle;Max_cycle;Signal;HPM_P1;HPM_P2
2021/04/13 00:02:30;;;;;;;3.13;2.57;;;7.30;99.90;;;;;;5098967;28;20671;-67
2021/04/13 00:04:59;;;;;;;5.03;2.93;;;7.30;99.90;;;;;;5102481;28;20204;-67
2021/04/13 00:07:29;;;;;;;3.40;3.00;;;7.30;99.90;;;;;;5109446;28;20794;-68
2021/04/13 00:10:01;;;;;;;4.80;2.70;;;7.30;99.90;;;;;;5110474;28;20199;-67
2021/04/13 00:12:31;;;;;;;3.60;2.83;;;7.20;99.90;;;;;;5099463;28;20574;-67
2021/04/13 00:14:59;;;;;;;6.43;2.77;;;7.20;99.90;;;;;;5105452;28;20230;-68
2021/04/13 00:17:29;;;;;;;3.30;2.60;;;7.20;99.90;;;;;;5106395;28;20287;-67
2021/04/13 00:20:01;;;;;;;3.67;2.63;;;7.10;99.90;;;;;;5098845;28;20200;-68
2021/04/13 00:22:29;;;;;;;3.07;2.57;;;7.10;99.90;;;;;;5101262;28;20200;-66
2021/04/13 00:24:57;;;;;;;3.33;2.70;;;7.10;99.90;;;;;;5103715;28;20227;-69
2021/04/13 00:27:26;;;;;;;4.93;2.83;;;7.10;99.90;;;;;;5104352;28;20744;-68
2021/04/13 00:30:08;;;;;;;5.57;2.97;;;7.10;99.90;;;;;;5099589;28;20243;-68
2021/04/13 00:32:37;;;;;;;4.50;2.90;;;7.10;99.90;;;;;;5100656;28;20207;-67
2021/04/13 00:35:16;;;;;;;3.93;2.93;;;7.10;99.90;;;;;;5099551;28;20220;-68
2021/04/13 00:37:42;;;;;;;4.57;3.03;;;7.10;99.90;;;;;;5111871;28;20279;-68
2021/04/13 00:40:30;;;;;;;3.27;2.90;;;7.10;99.90;;;;;;5105022;28;20229;-68
2021/04/13 00:43:02;;;;;;;3.20;2.90;;;7.00;99.90;;;;;;5102724;28;20208;-68
2021/04/13 00:45:32;;;;;;;3.33;2.67;;;7.00;99.90;;;;;;5099469;28;20207;-68
2021/04/13 00:48:00;;;;;;;4.07;3.23;;;7.00;99.90;;;;;;5095740;28;20208;-68
2021/04/13 00:50:32;;;;;;;4.80;2.73;;;6.90;99.90;;;;;;5105889;28;20205;-68
2021/04/13 00:53:03;;;;;;;4.10;3.43;;;6.90;99.90;;;;;;5104137;28;20204;-67
2021/04/13 00:55:34;;;;;;;5.20;3.20;;;6.90;99.90;;;;;;5109741;28;20554;-70
2021/04/13 00:58:07;;;;;;;4.27;3.00;;;6.90;99.90;;;;;;5109314;28;20203;-68
2021/04/13 01:00:38;;;;;;;3.10;2.67;;;6.90;99.90;;;;;;5092891;28;20265;-65
2021/04/13 01:03:05;;;;;;;4.87;3.00;;;6.90;99.90;;;;;;5096930;28;20605;-65
2021/04/13 01:05:40;;;;;;;3.43;2.80;;;6.80;99.90;;;;;;5105898;28;20624;-66
2021/04/13 01:08:20;;;;;;;3.70;3.23;;;6.80;99.90;;;;;;5106997;28;20641;-65
2021/04/13 01:10:48;;;;;;;5.17;2.80;;;6.80;99.90;;;;;;5104736;28;20212;-66
2021/04/13 01:13:17;;;;;;;4.50;2.70;;;6.80;99.90;;;;;;5106863;28;20208;-66
2021/04/13 01:15:46;;;;;;;5.23;2.60;;;6.90;99.90;;;;;;5102039;28;20211;-65
2021/04/13 01:18:20;;;;;;;3.60;3.07;;;6.80;99.90;;;;;;5105612;28;20699;-65
2021/04/13 01:20:54;;;;;;;3.10;2.87;;;6.80;99.90;;;;;;5105443;28;20295;-65
2021/04/13 01:23:23;;;;;;;3.70;2.70;;;6.80;99.90;;;;;;5106960;27;20209;-65
2021/04/13 01:25:58;;;;;;;4.90;3.30;;;6.80;99.90;;;;;;5104740;28;20228;-66
2021/04/13 01:28:27;;;;;;;3.57;2.83;;;6.80;99.90;;;;;;5094982;28;20189;-66
2021/04/13 01:30:56;;;;;;;3.63;3.20;;;6.70;99.90;;;;;;5105066;28;20271;-65
2021/04/13 01:33:37;;;;;;;3.77;3.03;;;6.70;99.90;;;;;;5104126;28;20208;-66
2021/04/13 01:36:16;;;;;;;4.47;2.80;;;6.70;99.90;;;;;;5103161;28;20210;-66
2021/04/13 01:38:59;;;;;;;3.50;2.73;;;6.70;99.90;;;;;;5113088;28;20199;-67
2021/04/13 01:41:43;;;;;;;3.20;2.60;;;6.70;99.90;;;;;;5100186;28;20634;-66
2021/04/13 01:44:11;;;;;;;3.53;3.00;;;6.70;99.90;;;;;;5097406;28;20228;-66
2021/04/13 01:46:39;;;;;;;3.37;2.73;;;6.60;99.90;;;;;;5098396;28;20220;-66
2021/04/13 01:49:05;;;;;;;3.03;2.83;;;6.60;99.90;;;;;;5107811;28;20200;-65
2021/04/13 01:51:33;;;;;;;4.10;2.60;;;6.60;99.90;;;;;;5108830;28;20248;-66
2021/04/13 01:54:00;;;;;;;3.17;2.77;;;6.60;99.90;;;;;;5109795;28;20680;-65
2021/04/13 01:56:41;;;;;;;2.80;2.50;;;6.50;99.90;;;;;;5104780;28;20257;-65
2021/04/13 01:59:15;;;;;;;3.33;2.50;;;6.50;99.90;;;;;;5104096;28;20291;-65
2021/04/13 02:01:46;;;;;;;2.67;2.40;;;6.50;99.90;;;;;;5095034;28;20196;-65
2021/04/13 02:04:19;;;;;;;2.40;2.20;;;6.50;99.90;;;;;;5104771;28;20228;-65
2021/04/13 02:06:55;;;;;;;4.97;2.37;;;6.50;99.90;;;;;;5090971;28;20565;-65
2021/04/13 02:09:28;;;;;;;4.10;2.20;;;6.50;99.90;;;;;;5099192;28;20235;-65
2021/04/13 02:12:00;;;;;;;2.50;2.10;;;6.50;99.90;;;;;;5096874;28;20192;-67
2021/04/13 02:14:30;;;;;;;2.60;2.23;;;6.50;99.90;;;;;;5105997;28;20232;-66
2021/04/13 02:17:03;;;;;;;2.53;2.20;;;6.50;99.90;;;;;;5101259;28;20326;-66
2021/04/13 02:19:31;;;;;;;3.13;2.73;;;6.50;99.90;;;;;;5106252;28;20522;-67
2021/04/13 02:22:04;;;;;;;3.37;2.27;;;6.40;99.90;;;;;;5099084;28;20231;-66
2021/04/13 02:24:33;;;;;;;2.60;2.20;;;6.40;99.90;;;;;;5101308;28;20239;-66
2021/04/13 02:27:04;;;;;;;3.60;2.10;;;6.40;99.90;;;;;;5098740;28;20215;-65
2021/04/13 02:29:35;;;;;;;5.53;2.23;;;6.40;99.90;;;;;;5106732;28;20201;-66
2021/04/13 02:32:12;;;;;;;3.30;2.23;;;6.30;99.90;;;;;;5090322;28;20193;-66
2021/04/13 02:34:44;;;;;;;3.17;2.33;;;6.30;99.90;;;;;;5106484;28;20196;-66
2021/04/13 02:37:14;;;;;;;2.23;1.83;;;6.30;99.90;;;;;;5105088;28;20191;-65
2021/04/13 02:39:42;;;;;;;3.87;2.17;;;6.30;99.90;;;;;;5101234;28;20208;-66
2021/04/13 02:42:14;;;;;;;2.33;2.07;;;6.40;99.90;;;;;;5105447;28;20214;-66
2021/04/13 02:44:40;;;;;;;3.03;2.47;;;6.30;99.90;;;;;;5114525;28;20245;-66
2021/04/13 02:47:11;;;;;;;2.63;2.33;;;6.30;99.90;;;;;;5110718;28;20227;-66
2021/04/13 02:49:41;;;;;;;5.13;3.07;;;6.30;99.90;;;;;;5116007;28;20231;-66
2021/04/13 02:52:15;;;;;;;6.67;3.03;;;6.30;99.90;;;;;;5117960;28;20214;-65
2021/04/13 02:54:44;;;;;;;2.87;2.57;;;6.30;99.90;;;;;;5105756;28;20588;-65
2021/04/13 02:57:17;;;;;;;3.30;2.97;;;6.30;99.90;;;;;;5104785;28;20238;-65
2021/04/13 02:59:43;;;;;;;3.73;2.87;;;6.30;99.90;;;;;;5103744;28;20691;-66
2021/04/13 03:02:15;;;;;;;3.17;2.87;;;6.30;99.90;;;;;;5097412;28;20212;-65
2021/04/13 03:04:44;;;;;;;3.70;2.53;;;6.40;99.90;;;;;;5113685;28;20196;-65
2021/04/13 03:07:13;;;;;;;3.87;3.20;;;6.40;99.90;;;;;;5106981;28;20224;-65
2021/04/13 03:09:41;;;;;;;3.80;2.80;;;6.30;99.90;;;;;;5112988;28;20207;-66
2021/04/13 03:12:11;;;;;;;4.27;3.10;;;6.30;99.90;;;;;;5102297;28;20288;-66
2021/04/13 03:14:43;;;;;;;4.03;3.37;;;6.30;99.90;;;;;;5107503;28;20328;-65
2021/04/13 03:17:14;;;;;;;3.30;2.97;;;6.30;99.90;;;;;;5104152;28;20223;-65
2021/04/13 03:19:42;;;;;;;6.00;2.97;;;6.20;99.90;;;;;;5107511;28;20564;-66
2021/04/13 03:22:09;;;;;;;4.97;3.17;;;6.20;99.90;;;;;;5106633;28;20203;-64
2021/04/13 03:24:41;;;;;;;4.53;3.00;;;6.20;99.90;;;;;;5106832;28;20273;-66
2021/04/13 03:27:11;;;;;;;4.47;3.37;;;6.20;99.90;;;;;;5102644;28;20212;-65
2021/04/13 03:29:46;;;;;;;4.27;3.30;;;6.20;99.90;;;;;;5105674;28;20267;-66
2021/04/13 03:32:14;;;;;;;4.03;3.10;;;6.20;99.90;;;;;;5099555;28;20208;-65
2021/04/13 03:34:42;;;;;;;4.43;3.30;;;6.10;99.90;;;;;;5107776;28;20204;-65
2021/04/13 03:37:10;;;;;;;4.93;3.23;;;6.10;99.90;;;;;;5101997;28;20291;-65
2021/04/13 03:39:41;;;;;;;3.30;2.93;;;6.10;99.90;;;;;;5111018;28;20649;-64
2021/04/13 03:42:14;;;;;;;3.13;2.73;;;6.10;99.90;;;;;;5105965;28;20203;-66
2021/04/13 03:44:42;;;;;;;4.10;3.50;;;6.10;99.90;;;;;;5103938;28;20208;-67
2021/04/13 03:47:11;;;;;;;5.53;3.23;;;6.10;99.90;;;;;;5103352;28;20292;-67
2021/04/13 03:49:40;;;;;;;4.10;3.33;;;6.10;99.90;;;;;;5107666;28;20204;-66
2021/04/13 03:52:11;;;;;;;4.23;3.13;;;6.00;99.90;;;;;;5105520;28;20275;-66
2021/04/13 03:54:39;;;;;;;4.23;3.37;;;6.00;99.90;;;;;;5103448;28;20212;-67
2021/04/13 03:57:07;;;;;;;3.90;3.40;;;6.00;99.90;;;;;;5102570;28;20560;-66
2021/04/13 03:59:36;;;;;;;6.93;3.13;;;6.00;99.90;;;;;;5107876;28;20218;-65
2021/04/13 04:02:06;;;;;;;4.70;3.43;;;5.90;99.90;;;;;;5104419;28;20213;-66
2021/04/13 04:04:35;;;;;;;4.73;3.47;;;5.90;99.90;;;;;;5107275;28;20264;-66
2021/04/13 04:07:19;;;;;;;4.23;3.40;;;5.90;99.90;;;;;;5107906;28;20307;-66
2021/04/13 04:09:45;;;;;;;6.93;3.80;;;5.90;99.90;;;;;;5106339;28;20250;-66
2021/04/13 04:12:18;;;;;;;6.20;3.90;;;5.90;99.90;;;;;;5100730;28;20287;-66
2021/04/13 04:15:00;;;;;;;6.37;4.20;;;5.90;99.90;;;;;;5105008;28;20641;-67
2021/04/13 04:17:29;;;;;;;5.03;3.80;;;5.80;99.90;;;;;;5101558;28;20253;-67
2021/04/13 04:19:57;;;;;;;5.40;3.90;;;5.80;99.90;;;;;;5103941;28;20204;-65
2021/04/13 04:22:24;;;;;;;6.00;3.70;;;5.70;99.90;;;;;;5106729;28;20216;-66
2021/04/13 04:24:52;;;;;;;6.50;3.57;;;5.70;99.90;;;;;;5098314;28;20232;-68
2021/04/13 04:27:27;;;;;;;6.80;3.67;;;5.70;99.90;;;;;;5097400;28;20212;-67
2021/04/13 04:30:08;;;;;;;5.87;3.70;;;5.70;99.90;;;;;;5109569;28;20235;-66
2021/04/13 04:32:44;;;;;;;6.40;3.43;;;5.70;99.90;;;;;;5099076;28;20296;-67
2021/04/13 04:35:29;;;;;;;5.73;3.47;;;5.70;99.90;;;;;;5102764;28;20196;-66
2021/04/13 04:38:03;;;;;;;6.60;3.73;;;5.60;99.90;;;;;;5099138;28;20208;-66
2021/04/13 04:40:51;;;;;;;4.40;3.63;;;5.60;99.90;;;;;;5097864;28;20207;-66
2021/04/13 04:43:21;;;;;;;6.47;3.20;;;5.60;99.90;;;;;;5101061;28;20204;-67
2021/04/13 04:45:51;;;;;;;4.27;3.50;;;5.50;99.90;;;;;;5102064;28;20212;-67
2021/04/13 04:48:22;;;;;;;5.77;3.97;;;5.50;99.90;;;;;;5106694;28;20644;-65
2021/04/13 04:50:49;;;;;;;5.80;3.40;;;5.50;99.90;;;;;;5112281;28;20204;-66
2021/04/13 04:53:16;;;;;;;8.87;3.63;;;5.50;99.90;;;;;;5108635;28;20208;-65
2021/04/13 04:55:42;;;;;;;5.07;3.63;;;5.50;99.90;;;;;;5105721;28;20291;-66
2021/04/13 04:58:09;;;;;;;8.43;4.13;;;5.40;99.90;;;;;;5104283;28;20209;-65
2021/04/13 05:00:35;;;;;;;5.93;3.70;;;5.40;99.90;;;;;;5100174;28;20212;-66
2021/04/13 05:03:02;;;;;;;6.00;3.63;;;5.40;99.90;;;;;;5103274;28;20200;-65
2021/04/13 05:05:29;;;;;;;5.13;3.63;;;5.40;99.90;;;;;;5104292;28;20270;-66
2021/04/13 05:07:55;;;;;;;5.67;3.87;;;5.50;99.90;;;;;;5102630;28;20632;-64
2021/04/13 05:10:21;;;;;;;7.80;3.67;;;5.50;99.90;;;;;;5111011;28;20661;-65
2021/04/13 05:12:48;;;;;;;5.47;3.67;;;5.50;99.90;;;;;;5109804;28;20204;-65
2021/04/13 05:15:15;;;;;;;6.47;3.67;;;5.50;99.90;;;;;;5106682;28;20223;-66
2021/04/13 05:17:41;;;;;;;4.90;3.33;;;5.40;99.90;;;;;;5104144;28;20283;-65
2021/04/13 05:20:09;;;;;;;4.83;3.67;;;5.40;99.90;;;;;;5105219;28;20628;-65
2021/04/13 05:22:36;;;;;;;5.77;4.07;;;5.40;99.90;;;;;;5102164;28;20680;-65
2021/04/13 05:25:02;;;;;;;7.27;3.73;;;5.40;99.90;;;;;;5105151;28;20257;-66
2021/04/13 05:27:29;;;;;;;7.07;3.80;;;5.40;99.90;;;;;;5098431;28;20618;-65
2021/04/13 05:29:55;;;;;;;6.97;4.10;;;5.40;99.90;;;;;;5102415;28;20237;-65
2021/04/13 05:32:21;;;;;;;7.53;4.50;;;5.40;99.90;;;;;;5101564;28;20209;-64
2021/04/13 05:34:48;;;;;;;5.70;3.80;;;5.40;99.90;;;;;;5096664;28;20238;-65
2021/04/13 05:37:14;;;;;;;5.27;3.70;;;5.40;99.90;;;;;;5098015;28;20633;-65
2021/04/13 05:39:41;;;;;;;6.33;3.67;;;5.40;99.90;;;;;;5106688;28;20209;-65
2021/04/13 05:42:18;;;;;;;9.97;4.30;;;5.40;99.90;;;;;;5107206;28;20207;-65
2021/04/13 05:44:44;;;;;;;7.90;4.00;;;5.30;99.90;;;;;;5105047;28;20249;-66
2021/04/13 05:47:12;;;;;;;6.80;3.73;;;5.30;99.90;;;;;;5098348;28;20224;-66
2021/04/13 05:49:39;;;;;;;8.80;4.10;;;5.30;99.90;;;;;;5109885;28;20199;-65
2021/04/13 05:52:06;;;;;;;9.23;4.33;;;5.30;99.90;;;;;;5105106;28;20606;-65
2021/04/13 05:54:32;;;;;;;9.83;3.70;;;5.30;99.90;;;;;;5106321;28;20671;-66
2021/04/13 05:57:01;;;;;;;5.23;3.53;;;5.30;99.90;;;;;;5106905;28;20225;-65
2021/04/13 05:59:28;;;;;;;5.33;3.63;;;5.40;99.90;;;;;;5101878;28;20223;-65
2021/04/13 06:01:56;;;;;;;6.83;3.63;;;5.40;99.90;;;;;;5103046;28;20352;-65
2021/04/13 06:04:22;;;;;;;7.10;3.60;;;5.40;99.90;;;;;;5097303;28;20334;-64
2021/04/13 06:06:49;;;;;;;8.07;4.00;;;5.50;99.90;;;;;;5097555;28;20236;-67
2021/04/13 06:09:16;;;;;;;9.30;4.13;;;5.50;99.90;;;;;;5093147;28;20342;-66
2021/04/13 06:11:43;;;;;;;9.17;4.10;;;5.50;99.90;;;;;;5082560;28;20213;-67
2021/04/13 06:14:11;;;;;;;6.73;3.63;;;5.50;99.90;;;;;;5078938;28;20229;-66
2021/04/13 06:16:38;;;;;;;4.07;3.53;;;5.50;99.90;;;;;;5092685;28;20205;-66
2021/04/13 06:19:06;;;;;;;9.33;3.63;;;5.50;99.90;;;;;;5093560;28;20204;-68
2021/04/13 06:21:33;;;;;;;5.43;3.00;;;5.50;99.90;;;;;;5093155;28;20224;-67
2021/04/13 06:23:59;;;;;;;4.63;3.37;;;5.50;99.90;;;;;;5092393;28;20311;-67
2021/04/13 06:26:26;;;;;;;5.23;3.00;;;5.50;99.90;;;;;;5091871;28;20228;-68
2021/04/13 06:28:53;;;;;;;5.27;3.10;;;5.40;99.90;;;;;;5092540;28;20572;-67
2021/04/13 06:31:20;;;;;;;4.73;3.20;;;5.40;99.90;;;;;;5093148;28;20303;-66
2021/04/13 06:33:46;;;;;;;3.20;2.70;;;5.40;99.90;;;;;;5091633;28;20548;-66
2021/04/13 06:36:17;;;;;;;3.33;3.00;;;5.40;99.90;;;;;;5092274;28;20257;-67
2021/04/13 06:38:45;;;;;;;5.53;3.17;;;5.50;99.90;;;;;;5090929;28;20679;-70
2021/04/13 06:41:38;;;;;;;5.30;2.87;;;5.50;99.90;;;;;;5091172;28;20295;-66
2021/04/13 06:44:24;;;;;;;5.97;3.30;;;5.50;99.90;;;;;;5085305;28;20282;-68
2021/04/13 06:47:03;;;;;;;5.97;3.53;;;5.50;99.90;;;;;;5090055;28;20232;-67
2021/04/13 06:49:43;;;;;;;7.60;4.03;;;5.40;99.90;;;;;;5081623;28;20292;-67
2021/04/13 06:52:19;;;;;;;9.43;4.77;;;5.50;99.90;;;;;;5104915;28;20224;-67
2021/04/13 06:54:54;;;;;;;7.03;4.40;;;5.40;99.90;;;;;;5092084;28;20212;-65
2021/04/13 06:57:38;;;;;;;8.73;3.90;;;5.40;99.90;;;;;;5092544;28;20199;-64
2021/04/13 07:00:19;;;;;;;4.77;3.80;;;5.40;99.90;;;;;;5087973;28;20643;-66
2021/04/13 07:03:00;;;;;;;6.93;3.70;;;5.40;99.90;;;;;;5091649;28;20649;-66
2021/04/13 07:05:31;;;;;;;6.93;3.80;;;5.40;99.90;;;;;;5088193;28;20295;-67
2021/04/13 07:08:02;;;;;;;5.53;4.10;;;5.30;99.90;;;;;;5093729;28;20266;-67
2021/04/13 07:10:33;;;;;;;6.83;4.70;;;5.30;99.90;;;;;;5092983;28;20204;-67
2021/04/13 07:13:06;;;;;;;6.00;4.23;;;5.20;99.90;;;;;;5092712;28;20671;-66
2021/04/13 07:15:39;;;;;;;6.63;4.10;;;5.30;99.90;;;;;;5078097;28;20205;-68
2021/04/13 07:18:12;;;;;;;8.47;4.30;;;5.30;99.90;;;;;;5085598;28;20292;-67
2021/04/13 07:20:45;;;;;;;8.13;4.27;;;5.30;99.90;;;;;;5092602;28;20215;-67
2021/04/13 07:23:18;;;;;;;5.33;3.60;;;5.30;99.90;;;;;;5085187;28;20205;-66
2021/04/13 07:25:49;;;;;;;6.20;4.17;;;5.30;99.90;;;;;;5081908;28;20236;-66
2021/04/13 07:28:21;;;;;;;7.70;5.10;;;5.30;99.90;;;;;;5091408;28;20307;-66
2021/04/13 07:30:51;;;;;;;9.10;5.07;;;5.30;99.90;;;;;;5105461;28;20264;-66
2021/04/13 07:33:21;;;;;;;9.77;3.77;;;5.30;99.90;;;;;;5089228;28;20225;-67
2021/04/13 07:35:50;;;;;;;5.47;3.60;;;5.40;99.90;;;;;;5092458;28;20205;-68
2021/04/13 07:38:20;;;;;;;6.40;3.53;;;5.40;99.90;;;;;;5091163;28;20201;-66
2021/04/13 07:40:50;;;;;;;6.17;3.43;;;5.30;99.90;;;;;;5103538;28;20655;-66
2021/04/13 07:43:21;;;;;;;4.93;3.27;;;5.30;99.90;;;;;;5092978;28;20194;-65
2021/04/13 07:45:56;;;;;;;4.67;3.30;;;5.30;99.90;;;;;;5094795;28;20211;-66
2021/04/13 07:48:42;;;;;;;6.80;4.23;;;5.30;99.90;;;;;;5095332;28;20315;-66
2021/04/13 07:51:17;;;;;;;6.03;3.60;;;5.20;99.90;;;;;;5100701;28;20617;-66
2021/04/13 07:54:07;;;;;;;6.43;3.57;;;5.20;99.90;;;;;;5100929;28;20235;-66
2021/04/13 07:56:44;;;;;;;6.00;3.43;;;5.20;99.90;;;;;;5091766;28;20232;-66
2021/04/13 07:59:19;;;;;;;6.17;3.27;;;5.30;99.90;;;;;;5094978;28;20200;-68
2021/04/13 08:01:47;;;;;;;5.40;3.17;;;5.30;99.90;;;;;;5096743;28;20330;-66
2021/04/13 08:04:19;;;;;;;4.63;2.27;;;5.30;99.90;;;;;;5098018;28;20196;-66
2021/04/13 08:06:52;;;;;;;2.63;2.13;;;5.30;99.90;;;;;;5092094;28;20214;-65
2021/04/13 08:09:36;;;;;;;3.60;2.77;;;5.20;99.90;;;;;;5098674;28;20201;-66
2021/04/13 08:12:15;;;;;;;3.93;2.13;;;5.10;99.90;;;;;;5095676;28;20220;-66
2021/04/13 08:14:44;;;;;;;2.70;2.23;;;5.10;99.90;;;;;;5091502;28;20248;-65
2021/04/13 08:17:18;;;;;;;2.37;1.93;;;5.10;99.90;;;;;;5094995;28;20204;-65
2021/04/13 08:19:57;;;;;;;2.20;1.50;;;5.10;99.90;;;;;;5094666;28;20287;-66
2021/04/13 08:22:23;;;;;;;2.37;1.60;;;5.10;99.90;;;;;;5097792;28;20196;-66
2021/04/13 08:24:52;;;;;;;4.07;1.57;;;5.00;99.90;;;;;;5095352;28;20232;-65
2021/04/13 08:27:33;;;;;;;2.23;1.80;;;5.00;99.90;;;;;;5095487;28;20787;-65
2021/04/13 08:30:05;;;;;;;1.83;1.43;;;4.90;99.90;;;;;;5101119;28;20544;-64
2021/04/13 08:32:58;;;;;;;2.70;1.47;;;4.90;99.90;;;;;;5100634;28;20283;-65
2021/04/13 08:35:32;;;;;;;3.03;1.43;;;4.90;99.90;;;;;;5102838;28;20705;-65
2021/04/13 08:38:20;;;;;;;1.80;1.50;;;4.80;99.90;;;;;;5103494;28;20983;-64
2021/04/13 08:41:02;;;;;;;2.47;1.73;;;4.80;99.90;;;;;;5101301;28;20215;-64
2021/04/13 08:43:37;;;;;;;3.90;1.67;;;4.70;99.90;;;;;;5100755;28;20200;-67
2021/04/13 08:46:18;;;;;;;3.23;1.50;;;4.70;99.90;;;;;;5094069;28;20231;-64
2021/04/13 08:48:51;;;;;;;2.00;1.80;;;4.70;99.90;;;;;;5107444;28;20204;-64
2021/04/13 08:51:31;;;;;;;2.13;1.60;;;4.80;99.90;;;;;;5102910;28;20257;-64
2021/04/13 08:54:13;;;;;;;2.33;1.50;;;4.70;99.90;;;;;;5106239;28;20280;-64
2021/04/13 08:56:54;;;;;;;3.13;1.67;;;4.70;99.90;;;;;;5103446;28;20204;-64
2021/04/13 08:59:35;;;;;;;2.00;1.80;;;4.70;99.90;;;;;;5105204;28;20203;-65
2021/04/13 09:02:14;;;;;;;3.17;1.80;;;4.80;99.90;;;;;;5106852;28;20207;-64
2021/04/13 09:04:41;;;;;;;2.87;1.77;;;4.80;99.90;;;;;;5108142;28;20200;-65
2021/04/13 09:07:15;;;;;;;2.23;1.90;;;4.90;99.90;;;;;;5108260;28;20228;-65
2021/04/13 09:09:45;;;;;;;3.47;1.73;;;4.90;99.90;;;;;;5105869;28;20218;-66
2021/04/13 09:12:25;;;;;;;1.93;1.50;;;4.90;99.90;;;;;;5105135;28;20213;-66
2021/04/13 09:14:56;;;;;;;2.53;1.77;;;4.90;99.90;;;;;;5106596;28;20291;-69
2021/04/13 09:17:30;;;;;;;1.43;1.33;;;4.90;99.90;;;;;;5108908;28;20200;-65
2021/04/13 09:20:10;;;;;;;2.30;2.10;;;5.00;99.90;;;;;;5103319;28;20712;-64
2021/04/13 09:22:48;;;;;;;2.00;1.40;;;5.00;99.90;;;;;;5099264;28;20292;-63
2021/04/13 09:25:25;;;;;;;2.57;1.40;;;5.00;99.90;;;;;;5098537;28;20234;-64
2021/04/13 09:28:00;;;;;;;3.27;1.50;;;5.00;99.90;;;;;;5099022;28;20308;-64
2021/04/13 09:30:34;;;;;;;3.17;1.63;;;5.10;99.90;;;;;;5098049;28;20637;-65
2021/04/13 09:33:13;;;;;;;2.37;1.30;;;5.10;99.90;;;;;;5100503;28;20224;-65
2021/04/13 09:36:11;;;;;;;2.07;1.30;;;5.10;99.90;;;;;;5099562;28;20204;-64
2021/04/13 09:39:15;;;;;;;2.10;1.20;;;5.10;99.90;;;;;;5104303;28;20210;-65
2021/04/13 09:42:19;;;;;;;1.80;1.63;;;5.10;99.90;;;;;;5069280;28;20291;-66
2021/04/13 09:45:02;;;;;;;1.90;1.43;;;5.10;99.90;;;;;;5084831;28;20287;-65
2021/04/13 09:47:53;;;;;;;3.80;1.40;;;5.10;99.90;;;;;;5098929;28;20547;-65
2021/04/13 09:50:29;;;;;;;2.07;1.40;;;5.10;99.90;;;;;;5098661;28;20251;-63
2021/04/13 09:53:16;;;;;;;2.67;1.53;;;5.20;99.90;;;;;;5097640;28;20204;-63
2021/04/13 09:55:57;;;;;;;2.73;1.30;;;5.20;99.90;;;;;;5104005;28;20204;-65
2021/04/13 09:58:48;;;;;;;1.77;1.30;;;5.30;99.90;;;;;;5100962;28;20205;-65
2021/04/13 10:01:27;;;;;;;2.10;1.67;;;5.40;99.90;;;;;;5098391;28;20843;-66
2021/04/13 10:04:33;;;;;;;2.63;1.73;;;5.40;99.90;;;;;;5098498;28;20291;-64
2021/04/13 10:07:05;;;;;;;1.60;1.50;;;5.50;99.90;;;;;;5100062;28;20289;-64
2021/04/13 10:09:39;;;;;;;1.70;1.60;;;5.60;99.90;;;;;;5085570;28;20230;-65
2021/04/13 10:12:29;;;;;;;2.53;1.50;;;5.70;99.90;;;;;;5092543;28;20200;-66
2021/04/13 10:15:20;;;;;;;2.27;1.67;;;5.80;99.90;;;;;;5083976;28;20234;-66
2021/04/13 10:18:14;;;;;;;2.03;1.77;;;5.80;99.90;;;;;;5093002;28;20260;-65
2021/04/13 10:20:52;;;;;;;3.13;1.90;;;5.90;99.90;;;;;;5086946;28;20287;-66
2021/04/13 10:23:42;;;;;;;2.40;1.90;;;6.00;99.90;;;;;;5093307;28;20287;-65
2021/04/13 10:26:53;;;;;;;3.73;1.80;;;6.00;99.90;;;;;;5090661;28;20235;-65
2021/04/13 10:29:52;;;;;;;3.53;1.60;;;6.10;99.90;;;;;;5093648;28;20204;-66
2021/04/13 10:32:45;;;;;;;3.13;1.67;;;6.20;99.90;;;;;;5085574;28;20665;-65
2021/04/13 10:35:52;;;;;;;3.50;1.77;;;6.20;99.90;;;;;;5089254;28;20208;-65
2021/04/13 10:38:44;;;;;;;3.53;2.10;;;6.20;99.90;;;;;;5098190;28;20223;-68
2021/04/13 10:41:44;;;;;;;4.80;1.93;;;6.20;99.90;;;;;;5092218;28;20247;-67
2021/04/13 10:44:50;;;;;;;2.27;2.00;;;6.30;99.90;;;;;;5059651;28;20326;-68
2021/04/13 10:48:01;;;;;;;2.83;2.00;;;6.30;99.90;;;;;;5092751;28;20216;-67
2021/04/13 10:51:01;;;;;;;3.73;2.40;;;6.40;99.90;;;;;;5086938;28;20278;-66
2021/04/13 10:54:00;;;;;;;3.17;1.93;;;6.50;99.90;;;;;;5092767;28;20216;-68
2021/04/13 10:56:54;;;;;;;3.97;1.77;;;6.60;99.90;;;;;;5093029;28;20224;-68
2021/04/13 11:00:05;;;;;;;4.47;1.83;;;6.60;99.90;;;;;;5094213;28;20283;-68
2021/04/13 11:03:33;;;;;;;3.17;1.70;;;6.70;99.90;;;;;;5026391;28;20207;-66
2021/04/13 11:06:29;;;;;;;2.83;1.90;;;6.70;99.90;;;;;;5034614;28;20239;-66
2021/04/13 11:09:32;;;;;;;5.80;2.20;;;6.80;99.90;;;;;;5033520;28;20241;-67
2021/04/13 11:12:34;;;;;;;4.03;2.03;;;6.80;99.90;;;;;;5089676;28;20435;-69
2021/04/13 11:15:37;;;;;;;2.37;2.00;;;7.00;99.90;;;;;;5097010;28;20262;-69
2021/04/13 11:18:17;;;;;;;2.70;1.47;;;7.00;99.90;;;;;;5094877;28;20315;-69
2021/04/13 11:21:13;;;;;;;3.90;1.97;;;7.10;99.90;;;;;;5096175;28;20215;-68
2021/04/13 11:24:14;;;;;;;3.80;2.00;;;7.10;99.90;;;;;;5095765;28;20218;-69
2021/04/13 11:27:09;;;;;;;4.00;2.10;;;7.20;99.90;;;;;;5076865;28;20244;-69
2021/04/13 11:30:04;;;;;;;2.77;2.10;;;7.20;99.90;;;;;;5097596;28;20201;-68
2021/04/13 11:33:03;;;;;;;3.23;2.37;;;7.30;99.90;;;;;;5089534;28;20208;-71
2021/04/13 11:35:35;;;;;;;3.00;2.10;;;7.40;99.90;;;;;;5095607;28;20296;-69
2021/04/13 11:38:35;;;;;;;2.87;1.80;;;7.50;99.90;;;;;;5096634;28;20195;-69
2021/04/13 11:41:20;;;;;;;4.47;2.80;;;7.50;99.90;;;;;;5097117;28;20357;-69
2021/04/13 11:43:50;;;;;;;2.93;2.30;;;7.50;99.90;;;;;;5092421;28;20193;-69
2021/04/13 11:46:23;;;;;;;3.63;2.50;;;7.60;99.90;;;;;;5095847;28;20216;-67
2021/04/13 11:48:56;;;;;;;2.80;2.47;;;7.60;99.90;;;;;;5096439;28;20212;-69
2021/04/13 11:51:30;;;;;;;4.57;2.10;;;7.50;99.90;;;;;;5096611;28;20355;-66
2021/04/13 11:54:18;;;;;;;3.20;2.33;;;7.50;99.90;;;;;;5095515;28;20218;-67
2021/04/13 11:57:00;;;;;;;2.53;1.90;;;7.50;99.90;;;;;;5095513;28;20261;-68
2021/04/13 11:59:27;;;;;;;3.00;2.50;;;7.50;99.90;;;;;;5095466;28;20231;-68
2021/04/13 12:01:57;;;;;;;3.23;2.47;;;7.50;99.90;;;;;;5093762;28;20207;-66
2021/04/13 12:04:39;;;;;;;4.30;2.37;;;7.60;99.90;;;;;;5090308;28;20585;-66
2021/04/13 12:07:08;;;;;;;5.37;2.87;;;7.70;99.90;;;;;;5095385;28;20232;-66
2021/04/13 12:09:47;;;;;;;3.70;2.20;;;7.70;99.90;;;;;;5095705;28;20291;-66
2021/04/13 12:12:46;;;;;;;2.73;2.17;;;7.80;99.90;;;;;;5092600;28;20207;-66
2021/04/13 12:15:36;;;;;;;3.33;2.43;;;7.80;99.90;;;;;;5091549;28;20686;-67
2021/04/13 12:18:41;;;;;;;3.37;2.30;;;7.80;99.90;;;;;;5081014;28;20236;-67
2021/04/13 12:21:44;;;;;;;5.40;2.47;;;7.80;99.90;;;;;;5101665;28;20262;-67
2021/04/13 12:24:44;;;;;;;4.10;2.60;;;7.80;99.90;;;;;;5099635;28;20303;-66
2021/04/13 12:27:46;;;;;;;3.97;2.40;;;7.80;99.90;;;;;;5100511;28;20672;-67
2021/04/13 12:31:04;;;;;;;4.63;2.43;;;7.90;99.90;;;;;;5100901;28;20254;-67
2021/04/13 12:34:03;;;;;;;3.80;2.07;;;7.80;99.90;;;;;;5102761;28;20227;-65
2021/04/13 12:36:59;;;;;;;2.40;1.97;;;7.80;99.90;;;;;;5105096;28;20221;-65
2021/04/13 12:39:51;;;;;;;4.13;2.20;;;7.80;99.90;;;;;;5109617;28;20580;-65
2021/04/13 12:42:40;;;;;;;4.53;2.47;;;7.80;99.90;;;;;;5098954;28;20225;-67
2021/04/13 12:45:46;;;;;;;4.27;2.17;;;7.80;99.90;;;;;;5102931;28;20674;-67
2021/04/13 12:48:17;;;;;;;3.77;2.77;;;7.80;99.90;;;;;;5098102;28;20307;-67
2021/04/13 12:50:46;;;;;;;5.93;2.83;;;7.90;99.90;;;;;;5108088;28;20341;-66
2021/04/13 12:53:15;;;;;;;4.07;2.50;;;7.90;99.90;;;;;;5098734;28;20295;-65
2021/04/13 12:55:43;;;;;;;3.17;2.57;;;7.90;99.90;;;;;;5104684;28;20217;-67
2021/04/13 12:58:13;;;;;;;4.33;2.83;;;7.90;99.90;;;;;;5097559;28;20220;-66
2021/04/13 13:00:44;;;;;;;5.57;2.90;;;8.00;99.90;;;;;;5097195;28;20208;-65
2021/04/13 13:03:17;;;;;;;4.77;2.87;;;8.00;99.90;;;;;;5099128;28;20253;-66
2021/04/13 13:05:44;;;;;;;3.83;3.20;;;8.10;99.90;;;;;;5100025;28;20200;-67
2021/04/13 13:08:16;;;;;;;4.60;2.40;;;8.20;99.90;;;;;;5100836;28;20700;-66
2021/04/13 13:10:45;;;;;;;4.10;2.60;;;8.20;99.90;;;;;;5108794;28;20803;-65
2021/04/13 13:13:17;;;;;;;3.90;2.77;;;8.20;99.90;;;;;;5095106;28;20546;-66
2021/04/13 13:15:44;;;;;;;7.07;2.90;;;8.20;99.90;;;;;;5106048;28;20933;-66
2021/04/13 13:18:21;;;;;;;4.73;2.43;;;8.30;99.90;;;;;;5105696;28;20559;-69
2021/04/13 13:20:56;;;;;;;4.20;3.10;;;8.20;99.90;;;;;;5094257;28;20307;-68
2021/04/13 13:23:28;;;;;;;2.63;2.30;;;8.20;99.90;;;;;;5093869;28;20200;-68
2021/04/13 13:25:55;;;;;;;4.37;2.60;;;8.20;99.90;;;;;;5092993;28;20232;-67
2021/04/13 13:28:24;;;;;;;4.77;2.60;;;8.30;99.90;;;;;;5093422;28;20575;-67
2021/04/13 13:30:53;;;;;;;5.27;2.30;;;8.40;99.90;;;;;;5094527;28;20217;-68
2021/04/13 13:33:21;;;;;;;5.07;2.80;;;8.40;99.90;;;;;;5093402;28;20314;-67
2021/04/13 13:35:49;;;;;;;2.83;2.37;;;8.50;99.90;;;;;;5100807;28;20653;-67
2021/04/13 13:38:20;;;;;;;4.23;2.27;;;8.50;99.90;;;;;;5096136;28;20201;-67
2021/04/13 13:40:47;;;;;;;3.43;2.50;;;8.60;99.90;;;;;;5103582;28;20320;-67
2021/04/13 13:43:21;;;;;;;4.50;2.80;;;8.60;99.90;;;;;;5098075;28;20204;-68
2021/04/13 13:45:49;;;;;;;9.43;2.23;;;8.70;99.90;;;;;;5101937;28;20196;-68